sensor_id;sensor_type;location;lat;lon;timestamp;temperature;humidity
3850;DHT22;1940;51.052;13.678;2024-03-25T00:02:07;5.50;91.30
3850;DHT22;1940;51.052;13.678;2024-03-25T00:04:33;5.50;91.30
3850;DHT22;1940;51.052;13.678;2024-03-25T00:06:58;5.50;91.40
3850;DHT22;1940;51.052;13.678;2024-03-25T00:09:24;5.50;91.40
3850;DHT22;1940;51.052;13.678;2024-03-25T00:11:50;5.60;91.60
3850;DHT22;1940;51.052;13.678;2024-03-25T00:14:20;5.50;91.80
3850;DHT22;1940;51.052;13.678;2024-03-25T00:16:45;5.50;91.90
3850;DHT22;1940;51.052;13.678;2024-03-25T00:19:12;5.40;92.30
3850;DHT22;1940;51.052;13.678;2024-03-25T00:21:37;5.40;93.00
3850;DHT22;1940;51.052;13.678;2024-03-25T00:24:03;5.30;93.20
3850;DHT22;1940;51.052;13.678;2024-03-25T00:26:28;5.20;93.80
3850;DHT22;1940;51.052;13.678;2024-03-25T00:28:54;5.10;93.70
3850;DHT22;1940;51.052;13.678;2024-03-25T00:31:19;5.00;93.70
3850;DHT22;1940;51.052;13.678;2024-03-25T00:33:45;4.90;94.30
3850;DHT22;1940;51.052;13.678;2024-03-25T00:36:10;4.80;94.60
3850;DHT22;1940;51.052;13.678;2024-03-25T00:38:36;4.70;94.80
3850;DHT22;1940;51.052;13.678;2024-03-25T00:41:01;4.70;95.20
3850;DHT22;1940;51.052;13.678;2024-03-25T00:43:27;4.70;95.20
3850;DHT22;1940;51.052;13.678;2024-03-25T00:45:53;4.60;95.20
3850;DHT22;1940;51.052;13.678;2024-03-25T00:48:18;4.60;95.20
3850;DHT22;1940;51.052;13.678;2024-03-25T00:50:44;4.60;95.20
3850;DHT22;1940;51.052;13.678;2024-03-25T00:53:09;4.60;95.20
3850;DHT22;1940;51.052;13.678;2024-03-25T00:55:35;4.60;95.20
3850;DHT22;1940;51.052;13.678;2024-03-25T00:58:02;4.70;95.20
3850;DHT22;1940;51.052;13.678;2024-03-25T01:00:28;4.80;95.20
3850;DHT22;1940;51.052;13.678;2024-03-25T01:02:53;4.80;95.20
3850;DHT22;1940;51.052;13.678;2024-03-25T01:05:19;4.90;95.20
3850;DHT22;1940;51.052;13.678;2024-03-25T01:07:44;4.90;95.20
3850;DHT22;1940;51.052;13.678;2024-03-25T01:10:10;5.00;95.20
3850;DHT22;1940;51.052;13.678;2024-03-25T01:12:35;5.10;95.20
3850;DHT22;1940;51.052;13.678;2024-03-25T01:15:01;5.10;95.20
3850;DHT22;1940;51.052;13.678;2024-03-25T01:17:28;5.20;95.20
3850;DHT22;1940;51.052;13.678;2024-03-25T01:19:53;5.10;95.20
3850;DHT22;1940;51.052;13.678;2024-03-25T01:22:19;5.10;95.20
3850;DHT22;1940;51.052;13.678;2024-03-25T01:24:44;5.10;95.20
3850;DHT22;1940;51.052;13.678;2024-03-25T01:27:10;5.10;95.20
3850;DHT22;1940;51.052;13.678;2024-03-25T01:29:35;5.00;95.20
3850;DHT22;1940;51.052;13.678;2024-03-25T01:32:01;4.90;95.20
3850;DHT22;1940;51.052;13.678;2024-03-25T01:34:27;4.80;95.20
3850;DHT22;1940;51.052;13.678;2024-03-25T01:36:53;5.00;95.20
3850;DHT22;1940;51.052;13.678;2024-03-25T01:39:18;5.00;95.20
3850;DHT22;1940;51.052;13.678;2024-03-25T01:41:44;4.90;94.70
3850;DHT22;1940;51.052;13.678;2024-03-25T01:44:10;4.90;94.40
3850;DHT22;1940;51.052;13.678;2024-03-25T01:46:36;4.90;94.50
3850;DHT22;1940;51.052;13.678;2024-03-25T01:49:02;4.80;94.60
3850;DHT22;1940;51.052;13.678;2024-03-25T01:51:28;4.80;94.40
3850;DHT22;1940;51.052;13.678;2024-03-25T01:53:54;4.80;94.50
3850;DHT22;1940;51.052;13.678;2024-03-25T01:56:21;4.60;94.80
3850;DHT22;1940;51.052;13.678;2024-03-25T01:58:48;4.50;95.20
3850;DHT22;1940;51.052;13.678;2024-03-25T02:01:14;4.50;95.20
3850;DHT22;1940;51.052;13.678;2024-03-25T02:03:41;4.50;95.20
3850;DHT22;1940;51.052;13.678;2024-03-25T02:06:12;4.40;95.20
3850;DHT22;1940;51.052;13.678;2024-03-25T02:08:39;4.40;95.20
3850;DHT22;1940;51.052;13.678;2024-03-25T02:11:06;4.50;95.20
3850;DHT22;1940;51.052;13.678;2024-03-25T02:13:32;4.50;95.20
3850;DHT22;1940;51.052;13.678;2024-03-25T02:15:57;4.60;95.20
3850;DHT22;1940;51.052;13.678;2024-03-25T02:18:23;4.60;95.20
3850;DHT22;1940;51.052;13.678;2024-03-25T02:20:48;4.70;95.20
3850;DHT22;1940;51.052;13.678;2024-03-25T02:23:14;4.70;95.20
3850;DHT22;1940;51.052;13.678;2024-03-25T02:25:42;4.70;95.20
3850;DHT22;1940;51.052;13.678;2024-03-25T02:28:08;4.70;95.20
3850;DHT22;1940;51.052;13.678;2024-03-25T02:30:34;4.70;95.20
3850;DHT22;1940;51.052;13.678;2024-03-25T02:32:59;4.80;95.20
3850;DHT22;1940;51.052;13.678;2024-03-25T02:35:26;4.80;95.20
3850;DHT22;1940;51.052;13.678;2024-03-25T02:37:52;4.70;95.20
3850;DHT22;1940;51.052;13.678;2024-03-25T02:40:18;4.70;95.20
3850;DHT22;1940;51.052;13.678;2024-03-25T02:42:45;4.80;95.20
3850;DHT22;1940;51.052;13.678;2024-03-25T02:45:10;4.70;95.20
3850;DHT22;1940;51.052;13.678;2024-03-25T02:47:36;4.80;95.20
3850;DHT22;1940;51.052;13.678;2024-03-25T02:50:01;4.90;95.20
3850;DHT22;1940;51.052;13.678;2024-03-25T02:52:27;4.90;95.20
3850;DHT22;1940;51.052;13.678;2024-03-25T02:54:53;4.90;95.20
3850;DHT22;1940;51.052;13.678;2024-03-25T02:57:20;5.00;95.20
3850;DHT22;1940;51.052;13.678;2024-03-25T02:59:45;4.90;95.20
3850;DHT22;1940;51.052;13.678;2024-03-25T03:02:10;5.00;95.20
3850;DHT22;1940;51.052;13.678;2024-03-25T03:04:36;5.00;95.20
3850;DHT22;1940;51.052;13.678;2024-03-25T03:07:01;5.00;95.20
3850;DHT22;1940;51.052;13.678;2024-03-25T03:09:27;5.00;95.20
3850;DHT22;1940;51.052;13.678;2024-03-25T03:11:52;5.00;95.20
3850;DHT22;1940;51.052;13.678;2024-03-25T03:14:18;5.00;95.20
3850;DHT22;1940;51.052;13.678;2024-03-25T03:16:43;5.10;95.20
3850;DHT22;1940;51.052;13.678;2024-03-25T03:19:09;5.10;95.20
3850;DHT22;1940;51.052;13.678;2024-03-25T03:21:35;5.00;95.20
3850;DHT22;1940;51.052;13.678;2024-03-25T03:24:02;5.10;95.20
3850;DHT22;1940;51.052;13.678;2024-03-25T03:26:27;5.10;95.20
3850;DHT22;1940;51.052;13.678;2024-03-25T03:28:53;5.20;94.70
3850;DHT22;1940;51.052;13.678;2024-03-25T03:31:19;5.20;94.30
3850;DHT22;1940;51.052;13.678;2024-03-25T03:33:47;5.20;94.20
3850;DHT22;1940;51.052;13.678;2024-03-25T03:36:14;5.20;94.20
3850;DHT22;1940;51.052;13.678;2024-03-25T03:38:40;5.20;93.90
3850;DHT22;1940;51.052;13.678;2024-03-25T03:41:05;5.20;94.00
3850;DHT22;1940;51.052;13.678;2024-03-25T03:43:32;5.20;93.70
3850;DHT22;1940;51.052;13.678;2024-03-25T03:45:57;5.20;93.40
3850;DHT22;1940;51.052;13.678;2024-03-25T03:48:23;5.30;93.60
3850;DHT22;1940;51.052;13.678;2024-03-25T03:50:48;5.30;93.40
3850;DHT22;1940;51.052;13.678;2024-03-25T03:53:13;5.20;92.90
3850;DHT22;1940;51.052;13.678;2024-03-25T03:55:39;5.20;93.20
3850;DHT22;1940;51.052;13.678;2024-03-25T03:58:05;5.20;93.40
3850;DHT22;1940;51.052;13.678;2024-03-25T04:00:33;5.20;93.40
3850;DHT22;1940;51.052;13.678;2024-03-25T04:03:00;5.20;93.30
3850;DHT22;1940;51.052;13.678;2024-03-25T04:05:29;5.20;93.20
3850;DHT22;1940;51.052;13.678;2024-03-25T04:07:55;5.20;93.20
3850;DHT22;1940;51.052;13.678;2024-03-25T04:10:20;5.30;93.30
3850;DHT22;1940;51.052;13.678;2024-03-25T04:12:46;5.40;93.10
3850;DHT22;1940;51.052;13.678;2024-03-25T04:15:12;5.30;92.50
3850;DHT22;1940;51.052;13.678;2024-03-25T04:17:43;5.40;92.10
3850;DHT22;1940;51.052;13.678;2024-03-25T04:20:11;5.50;91.90
3850;DHT22;1940;51.052;13.678;2024-03-25T04:22:37;5.50;91.80
3850;DHT22;1940;51.052;13.678;2024-03-25T04:25:06;5.50;91.60
3850;DHT22;1940;51.052;13.678;2024-03-25T04:27:31;5.40;91.10
3850;DHT22;1940;51.052;13.678;2024-03-25T04:29:57;5.50;91.20
3850;DHT22;1940;51.052;13.678;2024-03-25T04:32:22;5.50;90.80
3850;DHT22;1940;51.052;13.678;2024-03-25T04:34:47;5.40;90.70
3850;DHT22;1940;51.052;13.678;2024-03-25T04:37:13;5.40;90.80
3850;DHT22;1940;51.052;13.678;2024-03-25T04:39:40;5.40;91.10
3850;DHT22;1940;51.052;13.678;2024-03-25T04:42:05;5.40;91.10
3850;DHT22;1940;51.052;13.678;2024-03-25T04:44:31;5.30;90.80
3850;DHT22;1940;51.052;13.678;2024-03-25T04:46:56;5.30;90.80
3850;DHT22;1940;51.052;13.678;2024-03-25T04:49:22;5.30;90.70
3850;DHT22;1940;51.052;13.678;2024-03-25T04:51:47;5.40;90.80
3850;DHT22;1940;51.052;13.678;2024-03-25T04:54:13;5.30;90.90
3850;DHT22;1940;51.052;13.678;2024-03-25T04:56:39;5.30;91.30
3850;DHT22;1940;51.052;13.678;2024-03-25T04:59:05;5.30;90.80
3850;DHT22;1940;51.052;13.678;2024-03-25T05:01:31;5.20;91.10
3850;DHT22;1940;51.052;13.678;2024-03-25T05:03:56;5.20;91.20
3850;DHT22;1940;51.052;13.678;2024-03-25T05:06:21;5.30;91.00
3850;DHT22;1940;51.052;13.678;2024-03-25T05:08:47;5.30;91.00
3850;DHT22;1940;51.052;13.678;2024-03-25T05:11:12;5.40;90.00
3850;DHT22;1940;51.052;13.678;2024-03-25T05:13:38;5.40;90.10
3850;DHT22;1940;51.052;13.678;2024-03-25T05:16:03;5.30;90.30
3850;DHT22;1940;51.052;13.678;2024-03-25T05:18:29;5.40;90.50
3850;DHT22;1940;51.052;13.678;2024-03-25T05:20:54;5.40;90.50
3850;DHT22;1940;51.052;13.678;2024-03-25T05:23:20;5.30;90.70
3850;DHT22;1940;51.052;13.678;2024-03-25T05:25:45;5.40;91.00
3850;DHT22;1940;51.052;13.678;2024-03-25T05:28:11;5.30;90.80
3850;DHT22;1940;51.052;13.678;2024-03-25T05:30:38;5.30;91.10
3850;DHT22;1940;51.052;13.678;2024-03-25T05:33:04;5.40;90.90
3850;DHT22;1940;51.052;13.678;2024-03-25T05:35:29;5.30;90.80
3850;DHT22;1940;51.052;13.678;2024-03-25T05:37:58;5.20;90.70
3850;DHT22;1940;51.052;13.678;2024-03-25T05:40:23;5.30;90.80
3850;DHT22;1940;51.052;13.678;2024-03-25T05:42:49;5.30;90.40
3850;DHT22;1940;51.052;13.678;2024-03-25T05:45:15;5.30;90.10
3850;DHT22;1940;51.052;13.678;2024-03-25T05:47:41;5.30;90.20
3850;DHT22;1940;51.052;13.678;2024-03-25T05:50:07;5.40;89.70
3850;DHT22;1940;51.052;13.678;2024-03-25T05:52:33;5.40;89.60
3850;DHT22;1940;51.052;13.678;2024-03-25T05:54:58;5.40;89.60
3850;DHT22;1940;51.052;13.678;2024-03-25T05:57:24;5.70;89.00
3850;DHT22;1940;51.052;13.678;2024-03-25T05:59:49;5.80;87.70
3850;DHT22;1940;51.052;13.678;2024-03-25T06:02:15;5.70;87.20
3850;DHT22;1940;51.052;13.678;2024-03-25T06:04:40;5.70;87.40
3850;DHT22;1940;51.052;13.678;2024-03-25T06:07:06;5.70;87.30
3850;DHT22;1940;51.052;13.678;2024-03-25T06:09:32;5.70;87.10
3850;DHT22;1940;51.052;13.678;2024-03-25T06:11:57;5.60;87.20
3850;DHT22;1940;51.052;13.678;2024-03-25T06:14:22;5.70;87.60
3850;DHT22;1940;51.052;13.678;2024-03-25T06:16:48;5.70;87.90
3850;DHT22;1940;51.052;13.678;2024-03-25T06:19:13;5.70;88.50
3850;DHT22;1940;51.052;13.678;2024-03-25T06:21:39;5.60;88.80
3850;DHT22;1940;51.052;13.678;2024-03-25T06:24:05;5.60;89.40
3850;DHT22;1940;51.052;13.678;2024-03-25T06:26:30;5.80;89.10
3850;DHT22;1940;51.052;13.678;2024-03-25T06:28:56;5.80;87.90
3850;DHT22;1940;51.052;13.678;2024-03-25T06:31:21;5.80;88.20
3850;DHT22;1940;51.052;13.678;2024-03-25T06:34:05;5.80;87.90
3850;DHT22;1940;51.052;13.678;2024-03-25T06:36:45;5.80;87.80
3850;DHT22;1940;51.052;13.678;2024-03-25T06:39:11;5.80;88.00
3850;DHT22;1940;51.052;13.678;2024-03-25T06:41:36;5.90;87.90
3850;DHT22;1940;51.052;13.678;2024-03-25T06:44:02;5.90;87.30
3850;DHT22;1940;51.052;13.678;2024-03-25T06:46:27;5.90;86.70
3850;DHT22;1940;51.052;13.678;2024-03-25T06:48:53;5.90;87.00
3850;DHT22;1940;51.052;13.678;2024-03-25T06:51:18;5.90;87.00
3850;DHT22;1940;51.052;13.678;2024-03-25T06:53:44;5.90;86.80
3850;DHT22;1940;51.052;13.678;2024-03-25T06:56:10;5.90;87.10
3850;DHT22;1940;51.052;13.678;2024-03-25T06:58:36;5.90;87.30
3850;DHT22;1940;51.052;13.678;2024-03-25T07:01:06;5.90;86.90
3850;DHT22;1940;51.052;13.678;2024-03-25T07:03:33;6.00;86.80
3850;DHT22;1940;51.052;13.678;2024-03-25T07:05:59;6.10;85.90
3850;DHT22;1940;51.052;13.678;2024-03-25T07:08:28;6.10;86.40
3850;DHT22;1940;51.052;13.678;2024-03-25T07:10:55;6.20;86.30
3850;DHT22;1940;51.052;13.678;2024-03-25T07:13:21;6.30;86.10
3850;DHT22;1940;51.052;13.678;2024-03-25T07:15:46;6.30;85.70
3850;DHT22;1940;51.052;13.678;2024-03-25T07:18:12;6.40;86.00
3850;DHT22;1940;51.052;13.678;2024-03-25T07:20:41;6.70;85.60
3850;DHT22;1940;51.052;13.678;2024-03-25T07:23:07;6.70;85.40
3850;DHT22;1940;51.052;13.678;2024-03-25T07:25:32;6.90;83.80
3850;DHT22;1940;51.052;13.678;2024-03-25T07:27:58;6.90;84.30
3850;DHT22;1940;51.052;13.678;2024-03-25T07:30:24;6.80;83.80
3850;DHT22;1940;51.052;13.678;2024-03-25T07:32:53;6.70;84.20
3850;DHT22;1940;51.052;13.678;2024-03-25T07:35:19;6.80;84.50
3850;DHT22;1940;51.052;13.678;2024-03-25T07:37:44;6.80;84.40
3850;DHT22;1940;51.052;13.678;2024-03-25T07:40:10;6.80;84.20
3850;DHT22;1940;51.052;13.678;2024-03-25T07:42:37;6.90;84.60
3850;DHT22;1940;51.052;13.678;2024-03-25T07:45:03;7.00;84.20
3850;DHT22;1940;51.052;13.678;2024-03-25T07:47:30;7.10;82.90
3850;DHT22;1940;51.052;13.678;2024-03-25T07:49:56;7.20;82.70
3850;DHT22;1940;51.052;13.678;2024-03-25T07:52:21;7.20;82.50
3850;DHT22;1940;51.052;13.678;2024-03-25T07:54:47;7.20;81.60
3850;DHT22;1940;51.052;13.678;2024-03-25T07:57:12;7.10;81.90
3850;DHT22;1940;51.052;13.678;2024-03-25T07:59:38;7.20;82.60
3850;DHT22;1940;51.052;13.678;2024-03-25T08:02:04;7.30;81.40
3850;DHT22;1940;51.052;13.678;2024-03-25T08:04:30;7.40;81.60
3850;DHT22;1940;51.052;13.678;2024-03-25T08:06:55;7.40;80.90
3850;DHT22;1940;51.052;13.678;2024-03-25T08:09:21;7.40;81.20
3850;DHT22;1940;51.052;13.678;2024-03-25T08:11:46;7.50;81.60
3850;DHT22;1940;51.052;13.678;2024-03-25T08:14:12;7.70;80.90
3850;DHT22;1940;51.052;13.678;2024-03-25T08:16:37;7.80;80.70
3850;DHT22;1940;51.052;13.678;2024-03-25T08:19:03;7.60;80.10
3850;DHT22;1940;51.052;13.678;2024-03-25T08:21:29;7.70;80.80
3850;DHT22;1940;51.052;13.678;2024-03-25T08:23:54;7.60;80.80
3850;DHT22;1940;51.052;13.678;2024-03-25T08:26:20;7.60;80.90
3850;DHT22;1940;51.052;13.678;2024-03-25T08:28:45;7.70;80.80
3850;DHT22;1940;51.052;13.678;2024-03-25T08:31:11;7.70;81.00
3850;DHT22;1940;51.052;13.678;2024-03-25T08:33:36;7.70;80.40
3850;DHT22;1940;51.052;13.678;2024-03-25T08:36:02;7.80;80.30
3850;DHT22;1940;51.052;13.678;2024-03-25T08:38:28;7.90;79.40
3850;DHT22;1940;51.052;13.678;2024-03-25T08:40:54;8.10;79.50
3850;DHT22;1940;51.052;13.678;2024-03-25T08:43:19;8.10;78.70
3850;DHT22;1940;51.052;13.678;2024-03-25T08:45:45;8.00;78.50
3850;DHT22;1940;51.052;13.678;2024-03-25T08:48:11;8.10;79.10
3850;DHT22;1940;51.052;13.678;2024-03-25T08:50:36;8.30;78.90
3850;DHT22;1940;51.052;13.678;2024-03-25T08:53:03;8.40;78.60
3850;DHT22;1940;51.052;13.678;2024-03-25T08:55:28;8.30;77.50
3850;DHT22;1940;51.052;13.678;2024-03-25T08:57:54;8.40;77.30
3850;DHT22;1940;51.052;13.678;2024-03-25T09:00:19;8.30;77.60
3850;DHT22;1940;51.052;13.678;2024-03-25T09:02:45;8.30;77.80
3850;DHT22;1940;51.052;13.678;2024-03-25T09:05:11;8.10;78.00
3850;DHT22;1940;51.052;13.678;2024-03-25T09:07:39;8.10;78.60
3850;DHT22;1940;51.052;13.678;2024-03-25T09:10:04;7.90;79.20
3850;DHT22;1940;51.052;13.678;2024-03-25T09:12:49;8.00;78.90
3850;DHT22;1940;51.052;13.678;2024-03-25T09:15:14;7.80;78.40
3850;DHT22;1940;51.052;13.678;2024-03-25T09:17:40;7.70;78.80
3850;DHT22;1940;51.052;13.678;2024-03-25T09:20:06;7.80;78.70
3850;DHT22;1940;51.052;13.678;2024-03-25T09:22:43;8.00;78.50
3850;DHT22;1940;51.052;13.678;2024-03-25T09:25:08;8.20;78.70
3850;DHT22;1940;51.052;13.678;2024-03-25T09:27:34;8.30;77.30
3850;DHT22;1940;51.052;13.678;2024-03-25T09:29:59;8.20;77.10
3850;DHT22;1940;51.052;13.678;2024-03-25T09:32:25;8.30;76.80
3850;DHT22;1940;51.052;13.678;2024-03-25T09:34:51;8.60;76.60
3850;DHT22;1940;51.052;13.678;2024-03-25T09:37:17;8.80;76.70
3850;DHT22;1940;51.052;13.678;2024-03-25T09:39:42;8.90;75.10
3850;DHT22;1940;51.052;13.678;2024-03-25T09:42:08;9.00;75.70
3850;DHT22;1940;51.052;13.678;2024-03-25T09:44:39;9.00;75.40
3850;DHT22;1940;51.052;13.678;2024-03-25T09:47:05;8.90;74.80
3850;DHT22;1940;51.052;13.678;2024-03-25T09:49:31;9.00;74.80
3850;DHT22;1940;51.052;13.678;2024-03-25T09:51:57;8.90;74.30
3850;DHT22;1940;51.052;13.678;2024-03-25T09:54:23;9.30;73.40
3850;DHT22;1940;51.052;13.678;2024-03-25T09:56:49;9.30;73.70
3850;DHT22;1940;51.052;13.678;2024-03-25T09:59:15;9.00;73.60
3850;DHT22;1940;51.052;13.678;2024-03-25T10:01:40;8.90;74.80
3850;DHT22;1940;51.052;13.678;2024-03-25T10:04:06;8.90;74.40
3850;DHT22;1940;51.052;13.678;2024-03-25T10:06:33;8.90;76.00
3850;DHT22;1940;51.052;13.678;2024-03-25T10:08:58;8.90;76.10
3850;DHT22;1940;51.052;13.678;2024-03-25T10:11:24;8.90;75.10
3850;DHT22;1940;51.052;13.678;2024-03-25T10:13:50;8.80;74.50
3850;DHT22;1940;51.052;13.678;2024-03-25T10:16:16;8.70;75.50
3850;DHT22;1940;51.052;13.678;2024-03-25T10:18:42;8.90;75.10
3850;DHT22;1940;51.052;13.678;2024-03-25T10:21:10;8.80;75.10
3850;DHT22;1940;51.052;13.678;2024-03-25T10:23:35;8.70;75.40
3850;DHT22;1940;51.052;13.678;2024-03-25T10:26:05;8.60;74.90
3850;DHT22;1940;51.052;13.678;2024-03-25T10:28:31;8.40;75.90
3850;DHT22;1940;51.052;13.678;2024-03-25T10:31:03;8.20;76.30
3850;DHT22;1940;51.052;13.678;2024-03-25T10:33:29;8.20;75.80
3850;DHT22;1940;51.052;13.678;2024-03-25T10:35:57;8.30;76.20
3850;DHT22;1940;51.052;13.678;2024-03-25T10:38:24;8.30;76.00
3850;DHT22;1940;51.052;13.678;2024-03-25T10:40:50;8.30;75.00
3850;DHT22;1940;51.052;13.678;2024-03-25T10:43:20;8.40;75.20
3850;DHT22;1940;51.052;13.678;2024-03-25T10:45:48;8.40;75.30
3850;DHT22;1940;51.052;13.678;2024-03-25T10:48:19;8.60;74.20
3850;DHT22;1940;51.052;13.678;2024-03-25T10:50:46;8.90;72.90
3850;DHT22;1940;51.052;13.678;2024-03-25T10:53:12;8.90;72.90
3850;DHT22;1940;51.052;13.678;2024-03-25T10:55:40;9.10;73.40
3850;DHT22;1940;51.052;13.678;2024-03-25T10:58:07;9.20;72.20
3850;DHT22;1940;51.052;13.678;2024-03-25T11:00:34;9.10;72.80
3850;DHT22;1940;51.052;13.678;2024-03-25T11:03:00;9.10;72.50
3850;DHT22;1940;51.052;13.678;2024-03-25T11:05:26;9.20;72.60
3850;DHT22;1940;51.052;13.678;2024-03-25T11:07:52;9.30;72.50
3850;DHT22;1940;51.052;13.678;2024-03-25T11:10:17;9.30;72.70
3850;DHT22;1940;51.052;13.678;2024-03-25T11:12:43;9.10;72.50
3850;DHT22;1940;51.052;13.678;2024-03-25T11:15:09;9.00;73.10
3850;DHT22;1940;51.052;13.678;2024-03-25T11:17:36;9.00;72.90
3850;DHT22;1940;51.052;13.678;2024-03-25T11:20:12;9.10;72.60
3850;DHT22;1940;51.052;13.678;2024-03-25T11:22:51;9.20;72.80
3850;DHT22;1940;51.052;13.678;2024-03-25T11:25:17;9.20;72.80
3850;DHT22;1940;51.052;13.678;2024-03-25T11:27:44;9.30;73.10
3850;DHT22;1940;51.052;13.678;2024-03-25T11:30:11;9.30;73.30
3850;DHT22;1940;51.052;13.678;2024-03-25T11:32:51;9.20;72.60
3850;DHT22;1940;51.052;13.678;2024-03-25T11:35:16;9.10;73.10
3850;DHT22;1940;51.052;13.678;2024-03-25T11:37:43;9.20;73.10
3850;DHT22;1940;51.052;13.678;2024-03-25T11:40:09;9.40;73.10
3850;DHT22;1940;51.052;13.678;2024-03-25T11:42:41;9.50;71.40
3850;DHT22;1940;51.052;13.678;2024-03-25T11:45:14;9.30;70.50
3850;DHT22;1940;51.052;13.678;2024-03-25T11:47:43;9.40;70.20
3850;DHT22;1940;51.052;13.678;2024-03-25T11:50:13;9.30;70.40
3850;DHT22;1940;51.052;13.678;2024-03-25T11:52:39;9.10;71.10
3850;DHT22;1940;51.052;13.678;2024-03-25T11:55:05;9.10;71.10
3850;DHT22;1940;51.052;13.678;2024-03-25T11:57:31;9.20;71.70
3850;DHT22;1940;51.052;13.678;2024-03-25T11:59:57;9.20;70.70
3850;DHT22;1940;51.052;13.678;2024-03-25T12:02:23;9.10;71.50
3850;DHT22;1940;51.052;13.678;2024-03-25T12:04:50;9.20;71.60
3850;DHT22;1940;51.052;13.678;2024-03-25T12:07:15;9.30;71.20
3850;DHT22;1940;51.052;13.678;2024-03-25T12:09:41;9.30;71.80
3850;DHT22;1940;51.052;13.678;2024-03-25T12:12:25;9.40;70.70
3850;DHT22;1940;51.052;13.678;2024-03-25T12:14:52;9.80;70.30
3850;DHT22;1940;51.052;13.678;2024-03-25T12:17:18;10.30;68.30
3850;DHT22;1940;51.052;13.678;2024-03-25T12:19:44;10.50;69.10
3850;DHT22;1940;51.052;13.678;2024-03-25T12:22:09;10.70;66.80
3850;DHT22;1940;51.052;13.678;2024-03-25T12:24:35;11.10;66.60
3850;DHT22;1940;51.052;13.678;2024-03-25T12:27:01;11.00;66.90
3850;DHT22;1940;51.052;13.678;2024-03-25T12:29:28;10.90;65.00
3850;DHT22;1940;51.052;13.678;2024-03-25T12:31:57;11.10;66.60
3850;DHT22;1940;51.052;13.678;2024-03-25T12:34:25;11.00;66.70
3850;DHT22;1940;51.052;13.678;2024-03-25T12:36:50;11.20;66.20
3850;DHT22;1940;51.052;13.678;2024-03-25T12:39:19;10.80;68.00
3850;DHT22;1940;51.052;13.678;2024-03-25T12:41:45;10.60;67.80
3850;DHT22;1940;51.052;13.678;2024-03-25T12:44:12;10.70;67.10
3850;DHT22;1940;51.052;13.678;2024-03-25T12:46:38;10.60;67.00
3850;DHT22;1940;51.052;13.678;2024-03-25T12:49:05;10.50;66.10
3850;DHT22;1940;51.052;13.678;2024-03-25T12:51:30;10.60;67.10
3850;DHT22;1940;51.052;13.678;2024-03-25T12:53:56;10.70;65.80
3850;DHT22;1940;51.052;13.678;2024-03-25T12:56:21;10.90;66.30
3850;DHT22;1940;51.052;13.678;2024-03-25T12:58:47;10.80;66.30
3850;DHT22;1940;51.052;13.678;2024-03-25T13:01:13;10.80;66.00
3850;DHT22;1940;51.052;13.678;2024-03-25T13:03:39;10.80;67.20
3850;DHT22;1940;51.052;13.678;2024-03-25T13:06:04;10.50;68.20
3850;DHT22;1940;51.052;13.678;2024-03-25T13:08:30;10.50;68.60
3850;DHT22;1940;51.052;13.678;2024-03-25T13:10:55;10.60;69.60
3850;DHT22;1940;51.052;13.678;2024-03-25T13:13:21;10.80;68.00
3850;DHT22;1940;51.052;13.678;2024-03-25T13:15:46;10.70;67.80
3850;DHT22;1940;51.052;13.678;2024-03-25T13:18:12;10.70;67.40
3850;DHT22;1940;51.052;13.678;2024-03-25T13:20:37;10.70;67.10
3850;DHT22;1940;51.052;13.678;2024-03-25T13:23:03;10.40;67.60
3850;DHT22;1940;51.052;13.678;2024-03-25T13:25:28;10.20;67.20
3850;DHT22;1940;51.052;13.678;2024-03-25T13:27:54;10.30;67.80
3850;DHT22;1940;51.052;13.678;2024-03-25T13:30:20;10.50;67.30
3850;DHT22;1940;51.052;13.678;2024-03-25T13:32:45;10.40;66.40
3850;DHT22;1940;51.052;13.678;2024-03-25T13:35:11;10.20;66.90
3850;DHT22;1940;51.052;13.678;2024-03-25T13:37:36;10.30;67.40
3850;DHT22;1940;51.052;13.678;2024-03-25T13:40:02;10.30;67.90
3850;DHT22;1940;51.052;13.678;2024-03-25T13:42:27;10.40;68.30
3850;DHT22;1940;51.052;13.678;2024-03-25T13:44:53;10.80;67.90
3850;DHT22;1940;51.052;13.678;2024-03-25T13:47:18;11.20;66.10
3850;DHT22;1940;51.052;13.678;2024-03-25T13:49:43;11.60;65.70
3850;DHT22;1940;51.052;13.678;2024-03-25T13:52:09;11.80;64.40
3850;DHT22;1940;51.052;13.678;2024-03-25T13:54:34;11.70;64.40
3850;DHT22;1940;51.052;13.678;2024-03-25T13:57:00;11.80;64.50
3850;DHT22;1940;51.052;13.678;2024-03-25T13:59:25;11.90;65.00
3850;DHT22;1940;51.052;13.678;2024-03-25T14:01:51;11.70;64.90
3850;DHT22;1940;51.052;13.678;2024-03-25T14:04:17;11.60;64.80
3850;DHT22;1940;51.052;13.678;2024-03-25T14:06:43;11.50;65.50
3850;DHT22;1940;51.052;13.678;2024-03-25T14:09:22;11.60;65.50
3850;DHT22;1940;51.052;13.678;2024-03-25T14:11:48;11.60;64.60
3850;DHT22;1940;51.052;13.678;2024-03-25T14:14:13;11.40;65.00
3850;DHT22;1940;51.052;13.678;2024-03-25T14:16:39;11.10;65.60
3850;DHT22;1940;51.052;13.678;2024-03-25T14:19:04;11.10;65.90
3850;DHT22;1940;51.052;13.678;2024-03-25T14:21:29;11.10;66.20
3850;DHT22;1940;51.052;13.678;2024-03-25T14:23:55;11.20;65.30
3850;DHT22;1940;51.052;13.678;2024-03-25T14:26:20;11.30;66.50
3850;DHT22;1940;51.052;13.678;2024-03-25T14:28:46;11.30;65.60
3850;DHT22;1940;51.052;13.678;2024-03-25T14:31:11;11.30;64.80
3850;DHT22;1940;51.052;13.678;2024-03-25T14:33:37;11.20;65.00
3850;DHT22;1940;51.052;13.678;2024-03-25T14:36:02;11.20;65.30
3850;DHT22;1940;51.052;13.678;2024-03-25T14:38:29;11.20;64.80
3850;DHT22;1940;51.052;13.678;2024-03-25T14:40:54;11.30;65.10
3850;DHT22;1940;51.052;13.678;2024-03-25T14:43:20;11.40;65.90
3850;DHT22;1940;51.052;13.678;2024-03-25T14:45:46;11.50;65.50
3850;DHT22;1940;51.052;13.678;2024-03-25T14:48:11;11.50;66.80
3850;DHT22;1940;51.052;13.678;2024-03-25T14:50:37;11.60;65.90
3850;DHT22;1940;51.052;13.678;2024-03-25T14:53:03;11.10;66.90
3850;DHT22;1940;51.052;13.678;2024-03-25T14:55:29;10.90;67.40
3850;DHT22;1940;51.052;13.678;2024-03-25T14:57:55;10.60;68.90
3850;DHT22;1940;51.052;13.678;2024-03-25T15:00:20;10.50;68.60
3850;DHT22;1940;51.052;13.678;2024-03-25T15:02:46;10.30;69.00
3850;DHT22;1940;51.052;13.678;2024-03-25T15:05:11;10.40;69.30
3850;DHT22;1940;51.052;13.678;2024-03-25T15:07:37;10.40;69.40
3850;DHT22;1940;51.052;13.678;2024-03-25T15:10:03;10.50;69.80
3850;DHT22;1940;51.052;13.678;2024-03-25T15:12:29;10.60;69.50
3850;DHT22;1940;51.052;13.678;2024-03-25T15:14:54;10.80;69.40
3850;DHT22;1940;51.052;13.678;2024-03-25T15:17:20;10.80;68.30
3850;DHT22;1940;51.052;13.678;2024-03-25T15:19:45;10.80;68.80
3850;DHT22;1940;51.052;13.678;2024-03-25T15:22:11;10.70;68.30
3850;DHT22;1940;51.052;13.678;2024-03-25T15:24:36;10.60;69.00
3850;DHT22;1940;51.052;13.678;2024-03-25T15:27:02;10.70;68.10
3850;DHT22;1940;51.052;13.678;2024-03-25T15:29:27;10.70;67.70
3850;DHT22;1940;51.052;13.678;2024-03-25T15:31:53;10.60;66.80
3850;DHT22;1940;51.052;13.678;2024-03-25T15:34:19;10.40;67.40
3850;DHT22;1940;51.052;13.678;2024-03-25T15:36:44;10.20;67.90
3850;DHT22;1940;51.052;13.678;2024-03-25T15:39:11;10.10;68.30
3850;DHT22;1940;51.052;13.678;2024-03-25T15:41:36;10.10;68.70
3850;DHT22;1940;51.052;13.678;2024-03-25T15:44:03;10.10;68.20
3850;DHT22;1940;51.052;13.678;2024-03-25T15:46:28;10.30;67.70
3850;DHT22;1940;51.052;13.678;2024-03-25T15:48:54;10.30;68.00
3850;DHT22;1940;51.052;13.678;2024-03-25T15:51:19;10.30;67.90